sensor_id;sensor_type;location;lat;lon;timestamp;temperature;humidity
11597;DHT22;5854;48.072;16.286;2023-03-21T00:00:08;12.10;54.50
11597;DHT22;5854;48.072;16.286;2023-03-21T00:02:37;12.10;54.70
11597;DHT22;5854;48.072;16.286;2023-03-21T00:05:05;12.10;54.60
11597;DHT22;5854;48.072;16.286;2023-03-21T00:07:32;12.10;54.50
11597;DHT22;5854;48.072;16.286;2023-03-21T00:09:59;12.10;54.20
11597;DHT22;5854;48.072;16.286;2023-03-21T00:12:27;12.10;54.20
11597;DHT22;5854;48.072;16.286;2023-03-21T00:14:58;12.10;53.90
11597;DHT22;5854;48.072;16.286;2023-03-21T00:17:29;12.20;53.30
11597;DHT22;5854;48.072;16.286;2023-03-21T00:19:57;12.10;53.70
11597;DHT22;5854;48.072;16.286;2023-03-21T00:22:24;12.20;53.30
11597;DHT22;5854;48.072;16.286;2023-03-21T00:24:52;12.20;54.30
11597;DHT22;5854;48.072;16.286;2023-03-21T00:27:19;12.10;54.60
11597;DHT22;5854;48.072;16.286;2023-03-21T00:29:46;12.10;53.90
11597;DHT22;5854;48.072;16.286;2023-03-21T00:32:16;12.10;54.30
11597;DHT22;5854;48.072;16.286;2023-03-21T00:34:43;12.10;53.60
11597;DHT22;5854;48.072;16.286;2023-03-21T00:37:10;12.20;53.10
11597;DHT22;5854;48.072;16.286;2023-03-21T00:39:41;12.00;54.00
11597;DHT22;5854;48.072;16.286;2023-03-21T00:42:08;12.00;53.80
11597;DHT22;5854;48.072;16.286;2023-03-21T00:44:35;12.10;53.50
11597;DHT22;5854;48.072;16.286;2023-03-21T00:47:04;12.10;54.60
11597;DHT22;5854;48.072;16.286;2023-03-21T00:49:33;12.10;53.50
11597;DHT22;5854;48.072;16.286;2023-03-21T00:52:04;12.10;55.30
11597;DHT22;5854;48.072;16.286;2023-03-21T00:54:34;12.00;53.70
11597;DHT22;5854;48.072;16.286;2023-03-21T00:57:03;12.00;54.40
11597;DHT22;5854;48.072;16.286;2023-03-21T00:59:30;12.00;53.60
11597;DHT22;5854;48.072;16.286;2023-03-21T01:01:57;12.00;54.80
11597;DHT22;5854;48.072;16.286;2023-03-21T01:04:26;11.90;54.60
11597;DHT22;5854;48.072;16.286;2023-03-21T01:06:54;11.90;53.90
11597;DHT22;5854;48.072;16.286;2023-03-21T01:09:22;12.00;53.00
11597;DHT22;5854;48.072;16.286;2023-03-21T01:11:50;12.10;53.90
11597;DHT22;5854;48.072;16.286;2023-03-21T01:14:19;12.00;53.50
11597;DHT22;5854;48.072;16.286;2023-03-21T01:16:47;12.00;54.10
11597;DHT22;5854;48.072;16.286;2023-03-21T01:19:16;12.00;53.00
11597;DHT22;5854;48.072;16.286;2023-03-21T01:21:44;12.00;53.70
11597;DHT22;5854;48.072;16.286;2023-03-21T01:24:13;11.90;54.00
11597;DHT22;5854;48.072;16.286;2023-03-21T01:26:40;11.90;54.30
11597;DHT22;5854;48.072;16.286;2023-03-21T01:29:07;12.00;52.40
11597;DHT22;5854;48.072;16.286;2023-03-21T01:31:34;12.10;52.70
11597;DHT22;5854;48.072;16.286;2023-03-21T01:34:01;11.90;53.80
11597;DHT22;5854;48.072;16.286;2023-03-21T01:36:28;11.90;53.40
11597;DHT22;5854;48.072;16.286;2023-03-21T01:38:55;11.80;53.60
11597;DHT22;5854;48.072;16.286;2023-03-21T01:41:27;11.80;54.00
11597;DHT22;5854;48.072;16.286;2023-03-21T01:43:55;11.80;53.50
11597;DHT22;5854;48.072;16.286;2023-03-21T01:46:36;11.80;54.10
11597;DHT22;5854;48.072;16.286;2023-03-21T01:49:09;11.80;54.00
11597;DHT22;5854;48.072;16.286;2023-03-21T01:51:43;11.70;54.50
11597;DHT22;5854;48.072;16.286;2023-03-21T01:54:13;11.80;53.30
11597;DHT22;5854;48.072;16.286;2023-03-21T01:56:43;11.80;52.70
11597;DHT22;5854;48.072;16.286;2023-03-21T01:59:17;11.90;53.70
11597;DHT22;5854;48.072;16.286;2023-03-21T02:01:48;11.90;52.80
11597;DHT22;5854;48.072;16.286;2023-03-21T02:04:17;11.90;52.80
11597;DHT22;5854;48.072;16.286;2023-03-21T02:06:55;11.70;54.90
11597;DHT22;5854;48.072;16.286;2023-03-21T02:09:28;11.60;53.90
11597;DHT22;5854;48.072;16.286;2023-03-21T02:11:59;11.60;54.40
11597;DHT22;5854;48.072;16.286;2023-03-21T02:14:27;11.70;54.00
11597;DHT22;5854;48.072;16.286;2023-03-21T02:17:03;11.70;54.50
11597;DHT22;5854;48.072;16.286;2023-03-21T02:20:03;11.70;54.50
11597;DHT22;5854;48.072;16.286;2023-03-21T02:26:37;11.70;54.30
11597;DHT22;5854;48.072;16.286;2023-03-21T02:29:36;11.70;53.80
11597;DHT22;5854;48.072;16.286;2023-03-21T02:32:38;11.70;53.40
11597;DHT22;5854;48.072;16.286;2023-03-21T02:35:24;11.70;54.00
11597;DHT22;5854;48.072;16.286;2023-03-21T02:38:03;11.80;53.80
11597;DHT22;5854;48.072;16.286;2023-03-21T02:40:35;11.80;54.10
11597;DHT22;5854;48.072;16.286;2023-03-21T02:43:08;11.80;54.00
11597;DHT22;5854;48.072;16.286;2023-03-21T02:45:41;11.70;53.80
11597;DHT22;5854;48.072;16.286;2023-03-21T02:48:14;11.80;53.20
11597;DHT22;5854;48.072;16.286;2023-03-21T02:50:47;11.80;53.00
11597;DHT22;5854;48.072;16.286;2023-03-21T02:53:19;11.80;52.80
11597;DHT22;5854;48.072;16.286;2023-03-21T02:55:48;11.80;53.40
11597;DHT22;5854;48.072;16.286;2023-03-21T02:58:19;11.80;53.40
11597;DHT22;5854;48.072;16.286;2023-03-21T03:00:48;11.80;53.90
11597;DHT22;5854;48.072;16.286;2023-03-21T03:03:16;11.80;53.30
11597;DHT22;5854;48.072;16.286;2023-03-21T03:05:45;11.70;53.40
11597;DHT22;5854;48.072;16.286;2023-03-21T03:08:26;11.70;53.70
11597;DHT22;5854;48.072;16.286;2023-03-21T03:11:07;11.80;52.80
11597;DHT22;5854;48.072;16.286;2023-03-21T03:13:57;11.70;53.80
11597;DHT22;5854;48.072;16.286;2023-03-21T03:16:35;11.70;53.40
11597;DHT22;5854;48.072;16.286;2023-03-21T03:19:08;11.70;53.10
11597;DHT22;5854;48.072;16.286;2023-03-21T03:21:40;11.70;53.10
11597;DHT22;5854;48.072;16.286;2023-03-21T03:24:15;11.70;52.90
11597;DHT22;5854;48.072;16.286;2023-03-21T03:26:47;11.70;53.20
11597;DHT22;5854;48.072;16.286;2023-03-21T03:29:18;11.60;53.70
11597;DHT22;5854;48.072;16.286;2023-03-21T03:31:50;11.60;53.30
11597;DHT22;5854;48.072;16.286;2023-03-21T03:34:32;11.60;54.10
11597;DHT22;5854;48.072;16.286;2023-03-21T03:37:05;11.50;54.70
11597;DHT22;5854;48.072;16.286;2023-03-21T03:39:40;11.50;53.60
11597;DHT22;5854;48.072;16.286;2023-03-21T03:42:14;11.50;54.30
11597;DHT22;5854;48.072;16.286;2023-03-21T03:44:43;11.50;54.90
11597;DHT22;5854;48.072;16.286;2023-03-21T03:47:14;11.40;53.80
11597;DHT22;5854;48.072;16.286;2023-03-21T03:49:48;11.50;54.90
11597;DHT22;5854;48.072;16.286;2023-03-21T03:52:21;11.50;53.90
11597;DHT22;5854;48.072;16.286;2023-03-21T03:54:54;11.50;53.90
11597;DHT22;5854;48.072;16.286;2023-03-21T03:57:24;11.50;53.70
11597;DHT22;5854;48.072;16.286;2023-03-21T03:59:52;11.60;54.00
11597;DHT22;5854;48.072;16.286;2023-03-21T04:02:19;11.50;54.80
11597;DHT22;5854;48.072;16.286;2023-03-21T04:04:46;11.40;53.80
11597;DHT22;5854;48.072;16.286;2023-03-21T04:07:17;11.50;53.60
11597;DHT22;5854;48.072;16.286;2023-03-21T04:09:44;11.50;54.50
11597;DHT22;5854;48.072;16.286;2023-03-21T04:12:13;11.50;54.90
11597;DHT22;5854;48.072;16.286;2023-03-21T04:14:40;11.50;55.20
11597;DHT22;5854;48.072;16.286;2023-03-21T04:17:07;11.50;53.50
11597;DHT22;5854;48.072;16.286;2023-03-21T04:19:35;11.50;53.60
11597;DHT22;5854;48.072;16.286;2023-03-21T04:22:03;11.50;53.50
11597;DHT22;5854;48.072;16.286;2023-03-21T04:24:30;11.50;53.40
11597;DHT22;5854;48.072;16.286;2023-03-21T04:26:58;11.40;54.50
11597;DHT22;5854;48.072;16.286;2023-03-21T04:29:27;11.40;54.60
11597;DHT22;5854;48.072;16.286;2023-03-21T04:31:54;11.40;53.00
11597;DHT22;5854;48.072;16.286;2023-03-21T04:34:21;11.40;53.80
11597;DHT22;5854;48.072;16.286;2023-03-21T04:36:52;11.30;53.90
11597;DHT22;5854;48.072;16.286;2023-03-21T04:39:20;11.30;55.00
11597;DHT22;5854;48.072;16.286;2023-03-21T04:41:49;11.20;54.70
11597;DHT22;5854;48.072;16.286;2023-03-21T04:44:19;11.30;53.70
11597;DHT22;5854;48.072;16.286;2023-03-21T04:46:47;11.20;54.40
11597;DHT22;5854;48.072;16.286;2023-03-21T04:49:16;11.20;53.90
11597;DHT22;5854;48.072;16.286;2023-03-21T04:51:46;11.20;53.60
11597;DHT22;5854;48.072;16.286;2023-03-21T04:54:13;11.20;54.90
11597;DHT22;5854;48.072;16.286;2023-03-21T04:56:40;11.20;53.80
11597;DHT22;5854;48.072;16.286;2023-03-21T04:59:09;11.20;55.50
11597;DHT22;5854;48.072;16.286;2023-03-21T05:01:37;11.10;54.50
11597;DHT22;5854;48.072;16.286;2023-03-21T05:04:07;11.10;54.20
11597;DHT22;5854;48.072;16.286;2023-03-21T05:06:34;11.10;54.10
11597;DHT22;5854;48.072;16.286;2023-03-21T05:09:02;11.10;54.50
11597;DHT22;5854;48.072;16.286;2023-03-21T05:11:32;11.00;54.70
11597;DHT22;5854;48.072;16.286;2023-03-21T05:14:02;11.10;54.20
11597;DHT22;5854;48.072;16.286;2023-03-21T05:16:29;11.00;54.50
11597;DHT22;5854;48.072;16.286;2023-03-21T05:18:57;11.00;55.30
11597;DHT22;5854;48.072;16.286;2023-03-21T05:21:30;11.00;54.90
11597;DHT22;5854;48.072;16.286;2023-03-21T05:23:58;11.00;55.20
11597;DHT22;5854;48.072;16.286;2023-03-21T05:26:28;10.90;55.00
11597;DHT22;5854;48.072;16.286;2023-03-21T05:28:55;11.00;54.80
11597;DHT22;5854;48.072;16.286;2023-03-21T05:31:22;11.00;55.10
11597;DHT22;5854;48.072;16.286;2023-03-21T05:33:49;11.00;54.40
11597;DHT22;5854;48.072;16.286;2023-03-21T05:36:16;11.00;56.60
11597;DHT22;5854;48.072;16.286;2023-03-21T05:38:45;11.10;55.10
11597;DHT22;5854;48.072;16.286;2023-03-21T05:41:12;11.10;54.80
11597;DHT22;5854;48.072;16.286;2023-03-21T05:43:40;11.00;54.20
11597;DHT22;5854;48.072;16.286;2023-03-21T05:46:08;11.00;55.20
11597;DHT22;5854;48.072;16.286;2023-03-21T05:48:36;11.10;55.00
11597;DHT22;5854;48.072;16.286;2023-03-21T05:51:04;11.10;55.30
11597;DHT22;5854;48.072;16.286;2023-03-21T05:53:32;11.00;53.80
11597;DHT22;5854;48.072;16.286;2023-03-21T05:56:00;11.00;54.60
11597;DHT22;5854;48.072;16.286;2023-03-21T05:58:28;11.10;53.80
11597;DHT22;5854;48.072;16.286;2023-03-21T06:00:55;11.10;55.10
11597;DHT22;5854;48.072;16.286;2023-03-21T06:03:22;11.10;55.30
11597;DHT22;5854;48.072;16.286;2023-03-21T06:05:49;11.10;54.30
11597;DHT22;5854;48.072;16.286;2023-03-21T06:08:16;11.10;53.60
11597;DHT22;5854;48.072;16.286;2023-03-21T06:10:43;11.20;54.30
11597;DHT22;5854;48.072;16.286;2023-03-21T06:13:12;11.20;53.50
11597;DHT22;5854;48.072;16.286;2023-03-21T06:15:40;11.30;54.50
11597;DHT22;5854;48.072;16.286;2023-03-21T06:18:07;11.20;54.00
11597;DHT22;5854;48.072;16.286;2023-03-21T06:20:34;11.20;54.10
11597;DHT22;5854;48.072;16.286;2023-03-21T06:23:01;11.20;54.70
11597;DHT22;5854;48.072;16.286;2023-03-21T06:25:28;11.30;54.50
11597;DHT22;5854;48.072;16.286;2023-03-21T06:27:55;11.30;54.40
11597;DHT22;5854;48.072;16.286;2023-03-21T06:30:23;11.60;52.20
11597;DHT22;5854;48.072;16.286;2023-03-21T06:32:50;12.30;53.10
11597;DHT22;5854;48.072;16.286;2023-03-21T06:35:19;12.90;52.60
11597;DHT22;5854;48.072;16.286;2023-03-21T06:37:46;13.50;50.60
11597;DHT22;5854;48.072;16.286;2023-03-21T06:40:14;14.10;48.60
11597;DHT22;5854;48.072;16.286;2023-03-21T06:42:41;14.30;45.60
11597;DHT22;5854;48.072;16.286;2023-03-21T06:45:08;14.20;45.80
11597;DHT22;5854;48.072;16.286;2023-03-21T06:47:37;14.30;44.70
11597;DHT22;5854;48.072;16.286;2023-03-21T06:50:05;14.50;45.60
11597;DHT22;5854;48.072;16.286;2023-03-21T06:52:32;14.80;44.80
11597;DHT22;5854;48.072;16.286;2023-03-21T06:54:59;14.50;45.00
11597;DHT22;5854;48.072;16.286;2023-03-21T06:57:26;14.50;43.30
11597;DHT22;5854;48.072;16.286;2023-03-21T06:59:53;14.50;44.50
11597;DHT22;5854;48.072;16.286;2023-03-21T07:02:20;14.00;46.10
11597;DHT22;5854;48.072;16.286;2023-03-21T07:04:49;14.10;45.50
11597;DHT22;5854;48.072;16.286;2023-03-21T07:07:16;13.50;47.20
11597;DHT22;5854;48.072;16.286;2023-03-21T07:09:43;13.10;47.80
11597;DHT22;5854;48.072;16.286;2023-03-21T07:12:10;13.40;47.70
11597;DHT22;5854;48.072;16.286;2023-03-21T07:14:37;13.50;46.90
11597;DHT22;5854;48.072;16.286;2023-03-21T07:17:04;13.60;47.50
11597;DHT22;5854;48.072;16.286;2023-03-21T07:19:31;13.60;47.90
11597;DHT22;5854;48.072;16.286;2023-03-21T07:21:59;13.70;47.30
11597;DHT22;5854;48.072;16.286;2023-03-21T07:24:26;13.80;46.70
11597;DHT22;5854;48.072;16.286;2023-03-21T07:26:53;13.80;46.50
11597;DHT22;5854;48.072;16.286;2023-03-21T07:29:20;14.30;46.30
11597;DHT22;5854;48.072;16.286;2023-03-21T07:31:48;15.00;43.60
11597;DHT22;5854;48.072;16.286;2023-03-21T07:34:15;15.50;43.40
11597;DHT22;5854;48.072;16.286;2023-03-21T07:36:43;16.20;42.50
11597;DHT22;5854;48.072;16.286;2023-03-21T07:39:11;16.50;40.50
11597;DHT22;5854;48.072;16.286;2023-03-21T07:41:39;16.50;39.80
11597;DHT22;5854;48.072;16.286;2023-03-21T07:44:06;17.00;40.10
11597;DHT22;5854;48.072;16.286;2023-03-21T07:46:33;17.40;38.90
11597;DHT22;5854;48.072;16.286;2023-03-21T07:49:00;17.50;38.30
11597;DHT22;5854;48.072;16.286;2023-03-21T07:51:27;17.40;38.20
11597;DHT22;5854;48.072;16.286;2023-03-21T07:53:54;17.20;37.60
11597;DHT22;5854;48.072;16.286;2023-03-21T07:56:22;16.10;39.50
11597;DHT22;5854;48.072;16.286;2023-03-21T07:58:49;15.40;41.00
11597;DHT22;5854;48.072;16.286;2023-03-21T08:01:16;14.90;42.30
11597;DHT22;5854;48.072;16.286;2023-03-21T08:03:43;14.50;43.90
11597;DHT22;5854;48.072;16.286;2023-03-21T08:06:12;14.30;44.10
11597;DHT22;5854;48.072;16.286;2023-03-21T08:08:39;14.10;45.00
11597;DHT22;5854;48.072;16.286;2023-03-21T08:11:07;14.10;45.40
11597;DHT22;5854;48.072;16.286;2023-03-21T08:13:35;14.20;45.00
11597;DHT22;5854;48.072;16.286;2023-03-21T08:16:03;14.10;45.60
11597;DHT22;5854;48.072;16.286;2023-03-21T08:18:31;14.20;44.90
11597;DHT22;5854;48.072;16.286;2023-03-21T08:20:58;14.40;44.00
11597;DHT22;5854;48.072;16.286;2023-03-21T08:23:25;14.40;44.60
11597;DHT22;5854;48.072;16.286;2023-03-21T08:25:52;14.20;45.70
11597;DHT22;5854;48.072;16.286;2023-03-21T08:28:21;14.20;44.70
11597;DHT22;5854;48.072;16.286;2023-03-21T08:30:50;14.30;45.20
11597;DHT22;5854;48.072;16.286;2023-03-21T08:33:17;14.20;44.20
11597;DHT22;5854;48.072;16.286;2023-03-21T08:35:45;14.10;44.90
11597;DHT22;5854;48.072;16.286;2023-03-21T08:38:12;14.10;44.80
11597;DHT22;5854;48.072;16.286;2023-03-21T08:40:40;14.20;45.10
11597;DHT22;5854;48.072;16.286;2023-03-21T08:43:07;14.20;44.30
11597;DHT22;5854;48.072;16.286;2023-03-21T08:45:34;14.30;44.80
11597;DHT22;5854;48.072;16.286;2023-03-21T08:48:03;14.60;44.40
11597;DHT22;5854;48.072;16.286;2023-03-21T08:50:30;14.60;43.40
11597;DHT22;5854;48.072;16.286;2023-03-21T08:52:57;14.40;44.00
11597;DHT22;5854;48.072;16.286;2023-03-21T08:55:24;14.30;44.80
11597;DHT22;5854;48.072;16.286;2023-03-21T08:57:51;14.30;44.50
11597;DHT22;5854;48.072;16.286;2023-03-21T09:00:19;14.30;45.30
11597;DHT22;5854;48.072;16.286;2023-03-21T09:02:47;14.30;44.50
11597;DHT22;5854;48.072;16.286;2023-03-21T09:05:18;14.00;44.90
11597;DHT22;5854;48.072;16.286;2023-03-21T09:07:46;14.10;45.80
11597;DHT22;5854;48.072;16.286;2023-03-21T09:10:17;14.20;45.90
11597;DHT22;5854;48.072;16.286;2023-03-21T09:12:45;14.30;46.60
11597;DHT22;5854;48.072;16.286;2023-03-21T09:15:12;14.40;44.10
11597;DHT22;5854;48.072;16.286;2023-03-21T09:17:40;14.30;44.50
11597;DHT22;5854;48.072;16.286;2023-03-21T09:20:09;14.70;44.70
11597;DHT22;5854;48.072;16.286;2023-03-21T09:22:45;15.00;44.90
11597;DHT22;5854;48.072;16.286;2023-03-21T09:25:12;15.00;43.00
11597;DHT22;5854;48.072;16.286;2023-03-21T09:27:40;14.80;45.00
11597;DHT22;5854;48.072;16.286;2023-03-21T09:30:08;14.80;43.30
11597;DHT22;5854;48.072;16.286;2023-03-21T09:32:36;14.70;44.60
11597;DHT22;5854;48.072;16.286;2023-03-21T09:35:05;14.90;43.90
11597;DHT22;5854;48.072;16.286;2023-03-21T09:37:32;14.70;43.90
11597;DHT22;5854;48.072;16.286;2023-03-21T09:40:05;14.60;43.80
11597;DHT22;5854;48.072;16.286;2023-03-21T09:42:36;14.60;43.70
11597;DHT22;5854;48.072;16.286;2023-03-21T09:45:14;14.60;44.00
11597;DHT22;5854;48.072;16.286;2023-03-21T09:47:45;14.60;44.40
11597;DHT22;5854;48.072;16.286;2023-03-21T09:50:20;14.70;42.80
11597;DHT22;5854;48.072;16.286;2023-03-21T09:52:55;14.60;44.00
11597;DHT22;5854;48.072;16.286;2023-03-21T09:55:26;14.50;43.70
11597;DHT22;5854;48.072;16.286;2023-03-21T09:58:03;14.40;43.50
11597;DHT22;5854;48.072;16.286;2023-03-21T10:00:35;14.50;43.00
11597;DHT22;5854;48.072;16.286;2023-03-21T10:03:08;14.40;43.80
11597;DHT22;5854;48.072;16.286;2023-03-21T10:05:42;14.40;42.60
11597;DHT22;5854;48.072;16.286;2023-03-21T10:08:14;14.70;44.10
11597;DHT22;5854;48.072;16.286;2023-03-21T10:10:50;14.70;43.10
11597;DHT22;5854;48.072;16.286;2023-03-21T10:13:21;14.80;43.10
11597;DHT22;5854;48.072;16.286;2023-03-21T10:15:48;14.80;42.60
11597;DHT22;5854;48.072;16.286;2023-03-21T10:18:21;14.90;41.80
11597;DHT22;5854;48.072;16.286;2023-03-21T10:20:50;15.00;42.10
11597;DHT22;5854;48.072;16.286;2023-03-21T10:23:21;15.10;41.00
11597;DHT22;5854;48.072;16.286;2023-03-21T10:25:54;15.00;42.00
11597;DHT22;5854;48.072;16.286;2023-03-21T10:28:25;14.90;41.50
11597;DHT22;5854;48.072;16.286;2023-03-21T10:30:56;15.00;41.70
11597;DHT22;5854;48.072;16.286;2023-03-21T10:33:26;15.00;42.30
11597;DHT22;5854;48.072;16.286;2023-03-21T10:35:57;15.10;42.60
11597;DHT22;5854;48.072;16.286;2023-03-21T10:38:26;15.10;42.10
11597;DHT22;5854;48.072;16.286;2023-03-21T10:40:54;15.20;41.40
11597;DHT22;5854;48.072;16.286;2023-03-21T10:43:34;15.10;41.20
11597;DHT22;5854;48.072;16.286;2023-03-21T10:46:10;15.30;40.00
11597;DHT22;5854;48.072;16.286;2023-03-21T10:48:40;15.30;40.80
11597;DHT22;5854;48.072;16.286;2023-03-21T10:51:14;15.40;40.90
11597;DHT22;5854;48.072;16.286;2023-03-21T10:53:45;15.40;41.30
11597;DHT22;5854;48.072;16.286;2023-03-21T10:56:22;15.40;40.90
11597;DHT22;5854;48.072;16.286;2023-03-21T10:58:53;15.50;41.40
11597;DHT22;5854;48.072;16.286;2023-03-21T11:01:26;15.40;40.90
11597;DHT22;5854;48.072;16.286;2023-03-21T11:03:58;15.40;40.00
11597;DHT22;5854;48.072;16.286;2023-03-21T11:06:28;15.50;40.40
11597;DHT22;5854;48.072;16.286;2023-03-21T11:09:00;15.50;39.90
11597;DHT22;5854;48.072;16.286;2023-03-21T11:11:36;15.60;41.20
11597;DHT22;5854;48.072;16.286;2023-03-21T11:14:07;15.70;39.70
11597;DHT22;5854;48.072;16.286;2023-03-21T11:16:46;15.70;39.40
11597;DHT22;5854;48.072;16.286;2023-03-21T11:19:15;15.80;40.30
11597;DHT22;5854;48.072;16.286;2023-03-21T11:21:43;16.00;39.70
11597;DHT22;5854;48.072;16.286;2023-03-21T11:24:13;16.00;38.70
11597;DHT22;5854;48.072;16.286;2023-03-21T11:26:44;15.80;38.40
11597;DHT22;5854;48.072;16.286;2023-03-21T11:29:28;15.60;39.40
11597;DHT22;5854;48.072;16.286;2023-03-21T11:32:01;15.50;39.20
11597;DHT22;5854;48.072;16.286;2023-03-21T11:34:42;15.40;39.30
11597;DHT22;5854;48.072;16.286;2023-03-21T11:37:18;15.50;40.90
11597;DHT22;5854;48.072;16.286;2023-03-21T11:39:54;15.50;40.50
11597;DHT22;5854;48.072;16.286;2023-03-21T11:42:28;15.60;39.90
11597;DHT22;5854;48.072;16.286;2023-03-21T11:45:01;15.90;38.80
11597;DHT22;5854;48.072;16.286;2023-03-21T11:47:30;15.90;39.40
11597;DHT22;5854;48.072;16.286;2023-03-21T11:49:57;15.80;39.50
11597;DHT22;5854;48.072;16.286;2023-03-21T11:52:33;16.00;39.50
11597;DHT22;5854;48.072;16.286;2023-03-21T11:55:22;16.10;40.20
11597;DHT22;5854;48.072;16.286;2023-03-21T11:58:14;16.10;39.40
11597;DHT22;5854;48.072;16.286;2023-03-21T12:01:01;16.00;39.30
11597;DHT22;5854;48.072;16.286;2023-03-21T12:03:57;16.00;39.50
11597;DHT22;5854;48.072;16.286;2023-03-21T12:06:34;15.90;39.70
11597;DHT22;5854;48.072;16.286;2023-03-21T12:09:17;15.90;39.20
11597;DHT22;5854;48.072;16.286;2023-03-21T12:11:59;15.90;40.90
11597;DHT22;5854;48.072;16.286;2023-03-21T12:14:39;15.80;40.00
11597;DHT22;5854;48.072;16.286;2023-03-21T12:17:19;15.90;39.40
11597;DHT22;5854;48.072;16.286;2023-03-21T12:20:06;15.90;41.00
11597;DHT22;5854;48.072;16.286;2023-03-21T12:23:15;15.80;40.70
11597;DHT22;5854;48.072;16.286;2023-03-21T12:26:02;16.00;40.10
11597;DHT22;5854;48.072;16.286;2023-03-21T12:28:42;16.10;40.20
11597;DHT22;5854;48.072;16.286;2023-03-21T12:31:21;16.20;40.60
11597;DHT22;5854;48.072;16.286;2023-03-21T12:34:07;16.10;40.80
11597;DHT22;5854;48.072;16.286;2023-03-21T12:36:52;16.10;40.90
11597;DHT22;5854;48.072;16.286;2023-03-21T12:39:28;16.20;38.30
11597;DHT22;5854;48.072;16.286;2023-03-21T12:42:08;16.30;40.30
11597;DHT22;5854;48.072;16.286;2023-03-21T12:44:49;16.50;40.40
11597;DHT22;5854;48.072;16.286;2023-03-21T12:47:23;16.60;39.40
11597;DHT22;5854;48.072;16.286;2023-03-21T12:49:53;16.80;38.10
11597;DHT22;5854;48.072;16.286;2023-03-21T12:52:26;16.80;38.50
11597;DHT22;5854;48.072;16.286;2023-03-21T12:54:58;17.00;38.10
11597;DHT22;5854;48.072;16.286;2023-03-21T12:57:31;16.60;39.20
11597;DHT22;5854;48.072;16.286;2023-03-21T13:00:03;16.50;38.30
11597;DHT22;5854;48.072;16.286;2023-03-21T13:02:39;16.40;39.60
11597;DHT22;5854;48.072;16.286;2023-03-21T13:05:16;16.30;41.00
11597;DHT22;5854;48.072;16.286;2023-03-21T13:07:48;16.30;40.40
11597;DHT22;5854;48.072;16.286;2023-03-21T13:10:20;16.10;41.20
11597;DHT22;5854;48.072;16.286;2023-03-21T13:12:57;16.20;38.50
11597;DHT22;5854;48.072;16.286;2023-03-21T13:15:37;16.30;39.60
11597;DHT22;5854;48.072;16.286;2023-03-21T13:18:18;16.20;41.10
11597;DHT22;5854;48.072;16.286;2023-03-21T13:21:07;16.20;39.00
11597;DHT22;5854;48.072;16.286;2023-03-21T13:23:38;16.10;39.60
11597;DHT22;5854;48.072;16.286;2023-03-21T13:26:08;16.00;40.80
11597;DHT22;5854;48.072;16.286;2023-03-21T13:28:39;15.90;40.20
11597;DHT22;5854;48.072;16.286;2023-03-21T13:31:20;15.90;41.90
11597;DHT22;5854;48.072;16.286;2023-03-21T13:33:52;15.90;39.30
11597;DHT22;5854;48.072;16.286;2023-03-21T13:36:23;16.00;38.90
11597;DHT22;5854;48.072;16.286;2023-03-21T13:38:53;16.00;41.00
11597;DHT22;5854;48.072;16.286;2023-03-21T13:41:30;16.00;41.60
11597;DHT22;5854;48.072;16.286;2023-03-21T13:44:07;15.90;39.70
11597;DHT22;5854;48.072;16.286;2023-03-21T13:46:43;15.90;40.80
11597;DHT22;5854;48.072;16.286;2023-03-21T13:49:25;16.00;40.10
11597;DHT22;5854;48.072;16.286;2023-03-21T13:51:54;16.20;39.60
11597;DHT22;5854;48.072;16.286;2023-03-21T13:54:42;16.20;38.60
11597;DHT22;5854;48.072;16.286;2023-03-21T13:57:36;16.30;38.90
11597;DHT22;5854;48.072;16.286;2023-03-21T14:00:18;16.30;39.20
11597;DHT22;5854;48.072;16.286;2023-03-21T14:02:56;16.30;39.20
11597;DHT22;5854;48.072;16.286;2023-03-21T14:05:27;16.20;39.30
11597;DHT22;5854;48.072;16.286;2023-03-21T14:07:56;16.20;39.70
11597;DHT22;5854;48.072;16.286;2023-03-21T14:10:28;16.20;41.10
11597;DHT22;5854;48.072;16.286;2023-03-21T14:12:57;16.20;40.70
11597;DHT22;5854;48.072;16.286;2023-03-21T14:15:26;16.20;39.80
11597;DHT22;5854;48.072;16.286;2023-03-21T14:17:59;16.10;42.30
11597;DHT22;5854;48.072;16.286;2023-03-21T14:20:30;16.20;41.30
11597;DHT22;5854;48.072;16.286;2023-03-21T14:23:03;16.10;42.50
11597;DHT22;5854;48.072;16.286;2023-03-21T14:25:32;16.20;41.90
11597;DHT22;5854;48.072;16.286;2023-03-21T14:28:03;16.10;40.50
11597;DHT22;5854;48.072;16.286;2023-03-21T14:30:38;16.10;41.20
11597;DHT22;5854;48.072;16.286;2023-03-21T14:33:14;16.30;40.10
11597;DHT22;5854;48.072;16.286;2023-03-21T14:35:45;16.40;41.40
11597;DHT22;5854;48.072;16.286;2023-03-21T14:38:19;16.50;42.20
11597;DHT22;5854;48.072;16.286;2023-03-21T14:40:49;16.50;40.30
11597;DHT22;5854;48.072;16.286;2023-03-21T14:43:21;16.50;41.40
11597;DHT22;5854;48.072;16.286;2023-03-21T14:45:52;16.50;40.40
11597;DHT22;5854;48.072;16.286;2023-03-21T14:48:28;16.50;39.50
11597;DHT22;5854;48.072;16.286;2023-03-21T14:51:01;16.50;41.10
11597;DHT22;5854;48.072;16.286;2023-03-21T14:53:31;16.40;42.00
11597;DHT22;5854;48.072;16.286;2023-03-21T14:56:03;16.30;41.10
11597;DHT22;5854;48.072;16.286;2023-03-21T14:58:37;16.20;40.90
11597;DHT22;5854;48.072;16.286;2023-03-21T15:01:10;16.20;39.10
11597;DHT22;5854;48.072;16.286;2023-03-21T15:03:40;16.10;42.40
11597;DHT22;5854;48.072;16.286;2023-03-21T15:06:13;16.10;43.00
11597;DHT22;5854;48.072;16.286;2023-03-21T15:08:53;16.10;39.80
11597;DHT22;5854;48.072;16.286;2023-03-21T15:11:28;16.00;39.70
11597;DHT22;5854;48.072;16.286;2023-03-21T15:13:58;16.10;40.90
11597;DHT22;5854;48.072;16.286;2023-03-21T15:16:27;16.20;41.00
11597;DHT22;5854;48.072;16.286;2023-03-21T15:18:55;16.30;43.00
11597;DHT22;5854;48.072;16.286;2023-03-21T15:21:26;16.40;39.50
11597;DHT22;5854;48.072;16.286;2023-03-21T15:23:59;16.40;41.10
11597;DHT22;5854;48.072;16.286;2023-03-21T15:26:29;16.30;40.30
11597;DHT22;5854;48.072;16.286;2023-03-21T15:28:58;16.30;39.80
11597;DHT22;5854;48.072;16.286;2023-03-21T15:31:29;16.20;39.10
11597;DHT22;5854;48.072;16.286;2023-03-21T15:33:58;16.20;39.20
11597;DHT22;5854;48.072;16.286;2023-03-21T15:36:31;16.10;40.10
11597;DHT22;5854;48.072;16.286;2023-03-21T15:39:00;16.20;39.70
11597;DHT22;5854;48.072;16.286;2023-03-21T15:41:29;16.20;40.90
11597;DHT22;5854;48.072;16.286;2023-03-21T15:44:04;16.20;39.50
11597;DHT22;5854;48.072;16.286;2023-03-21T15:46:40;16.20;41.20
11597;DHT22;5854;48.072;16.286;2023-03-21T15:49:15;16.10;40.10
11597;DHT22;5854;48.072;16.286;2023-03-21T15:51:48;16.00;40.10
11597;DHT22;5854;48.072;16.286;2023-03-21T15:54:21;16.00;40.30
11597;DHT22;5854;48.072;16.286;2023-03-21T15:56:52;16.00;39.70
11597;DHT22;5854;48.072;16.286;2023-03-21T15:59:24;16.00;40.10